Estación Meteorológica Peña el Pijo (Robertgarden) [ 12/09/19 16:56:07 CET ]

Fecha Hora Presion(HPa) Temp (°C) Humedad % Rocio (°C) Viento ( m/s) Direccion Lluvia 1Hora(mm) Lluvia 24H(mm) LLuvia Total(mm)
2019-Aug-24 01:01:50 1013.700 14.9 70 9.5         372.15
2019-Aug-24 02:01:40 1013.900 13.9 75 9.5         372.15
2019-Aug-24 03:02:16 1013.700 13.0 78 9.2         372.15
2019-Aug-24 04:03:14 1013.500 12.6 80 9.2         372.15
2019-Aug-24 05:01:43 1013.500 11.8 82 8.8         372.15
2019-Aug-24 06:01:49 1013.200 11.7 83 8.9         372.15
2019-Aug-24 07:01:58 1013.100 11.8 83 9.0         372.15
2019-Aug-24 08:01:43 1013.200 10.5 84 7.9         372.15
2019-Aug-24 09:01:38 1013.300 14.9 82 11.9         372.15
2019-Aug-24 10:01:55 1013.300 21.4 61 13.6         372.15
2019-Aug-24 11:01:52 1013.200 25.8 45 12.9         372.15
2019-Aug-24 12:01:39 1013.200 28.5 34 11.0         372.15
2019-Aug-24 13:01:56 1013.200 30.5 28 10.0         372.15
2019-Aug-24 14:02:05 1012.700 32.4 28 11.4         372.15
2019-Aug-24 15:01:35 1012.500 32.3 24 8.9 0.8 WSW     372.15
2019-Aug-24 16:01:42 1012.100 32.1 21 7.0         372.15
2019-Aug-24 17:01:31 1011.700 32.0 21 6.9         372.15
2019-Aug-24 18:01:49 1011.600 30.4 22 6.1 2.2 W     372.15
2019-Aug-24 19:01:50 1011.400 29.0 26 7.3         372.15
2019-Aug-24 20:01:55 1011.500 25.9 32 7.9         372.15
2019-Aug-24 21:01:50 1011.800 23.3 39 8.5         372.15
2019-Aug-24 22:02:00 1012.300 21.3 53 11.3         372.15
2019-Aug-24 23:01:41 1012.900 19.1 60 11.2         372.15

Temperatura Máxima:32°    Temperatura Mínima:10°
Presión Máxima:1013.900 Hpa    Presión Mínima:1011.400 Hpa


Volver